createdAt,value
2023-01-26T00:01:46.637Z,64.10
2023-01-26T00:03:59.832Z,39.20
2023-01-26T00:06:15.186Z,37.00
2023-01-26T00:08:27.745Z,32.20
2023-01-26T00:10:41.973Z,31.50
2023-01-26T00:12:54.572Z,30.30
2023-01-26T00:15:07.869Z,32.10
2023-01-26T00:17:27.140Z,30.80
2023-01-26T00:19:39.795Z,35.80
2023-01-26T00:21:52.371Z,39.20
2023-01-26T00:24:05.238Z,42.40
2023-01-26T00:26:20.645Z,46.80
2023-01-26T00:28:33.176Z,47.40
2023-01-26T00:30:45.867Z,40.30
2023-01-26T00:32:58.518Z,36.80
2023-01-26T00:35:11.575Z,34.30
2023-01-26T00:37:24.100Z,32.20
2023-01-26T00:39:36.718Z,34.20
2023-01-26T00:42:09.840Z,31.40
2023-01-26T00:44:22.467Z,36.40
2023-01-26T00:46:35.200Z,32.60
2023-01-26T00:48:47.765Z,31.00
2023-01-26T00:51:00.318Z,30.70
2023-01-26T00:53:13.104Z,30.40
2023-01-26T00:55:32.203Z,31.40
2023-01-26T00:57:44.814Z,29.60
2023-01-26T00:59:57.561Z,31.20
2023-01-26T01:02:10.172Z,31.10
2023-01-26T01:04:22.816Z,32.30
2023-01-26T01:06:35.629Z,29.70
2023-01-26T01:08:48.175Z,30.10
2023-01-26T01:11:05.483Z,29.20
2023-01-26T01:13:18.031Z,28.00
2023-01-26T01:15:30.597Z,29.70
2023-01-26T01:17:43.177Z,29.20
2023-01-26T01:19:55.791Z,32.50
2023-01-26T01:22:08.354Z,30.10
2023-01-26T01:24:21.084Z,28.70
2023-01-26T01:26:33.755Z,29.30
2023-01-26T01:28:46.516Z,31.10
2023-01-26T01:30:59.553Z,29.20
2023-01-26T01:33:12.199Z,31.00
2023-01-26T01:35:24.711Z,29.50
2023-01-26T01:37:37.360Z,27.90
2023-01-26T01:39:49.904Z,27.90
2023-01-26T01:42:02.521Z,26.90
2023-01-26T01:44:25.828Z,29.90
2023-01-26T01:46:40.432Z,28.00
2023-01-26T01:48:58.761Z,30.00
2023-01-26T01:51:20.460Z,31.00
2023-01-26T01:53:37.574Z,30.30
2023-01-26T01:56:01.386Z,30.50
2023-01-26T01:58:14.584Z,30.40
2023-01-26T02:00:27.834Z,30.30
2023-01-26T02:02:43.241Z,32.20
2023-01-26T02:05:00.709Z,32.00
2023-01-26T02:07:13.748Z,33.90
2023-01-26T02:09:50.401Z,33.90
2023-01-26T02:12:05.987Z,33.50
2023-01-26T02:14:18.627Z,33.90
2023-01-26T02:16:31.247Z,33.90
2023-01-26T02:18:45.648Z,37.90
2023-01-26T02:21:02.561Z,36.10
2023-01-26T02:23:47.303Z,35.10
2023-01-26T02:26:07.147Z,33.60
2023-01-26T02:28:24.672Z,33.80
2023-01-26T02:30:37.432Z,34.80
2023-01-26T02:32:50.014Z,35.80
2023-01-26T02:35:02.616Z,37.50
2023-01-26T02:37:15.479Z,37.30
2023-01-26T02:39:41.532Z,39.50
2023-01-26T02:42:13.164Z,41.40
2023-01-26T02:44:27.357Z,46.80
2023-01-26T02:46:40.155Z,43.00
2023-01-26T02:49:11.662Z,45.60
2023-01-26T02:51:24.308Z,38.20
2023-01-26T02:53:36.866Z,36.60
2023-01-26T02:55:49.518Z,34.80
2023-01-26T02:58:04.385Z,37.10
2023-01-26T03:00:25.956Z,37.40
2023-01-26T03:02:40.749Z,36.30
2023-01-26T03:04:53.303Z,39.10
2023-01-26T03:07:05.825Z,40.50
2023-01-26T03:09:18.722Z,36.80
2023-01-26T03:11:42.015Z,41.30
2023-01-26T03:13:54.627Z,39.70
2023-01-26T03:16:10.242Z,42.20
2023-01-26T03:18:41.792Z,34.50
2023-01-26T03:21:12.727Z,36.10
2023-01-26T03:23:44.204Z,37.60
2023-01-26T03:26:15.667Z,35.90
2023-01-26T03:28:28.268Z,37.70
2023-01-26T03:30:40.831Z,35.00
2023-01-26T03:32:53.382Z,35.20
2023-01-26T03:35:06.976Z,35.90
2023-01-26T03:37:22.670Z,35.40
2023-01-26T03:39:53.965Z,35.90
2023-01-26T03:42:25.638Z,36.50
2023-01-26T03:44:56.989Z,36.40
2023-01-26T03:47:28.297Z,35.10
2023-01-26T03:49:59.827Z,37.20
2023-01-26T03:52:31.207Z,34.70
2023-01-26T03:55:02.719Z,37.40
2023-01-26T03:57:15.293Z,36.50
2023-01-26T03:59:40.078Z,39.90
2023-01-26T04:02:11.509Z,35.10
2023-01-26T04:04:42.951Z,37.70
2023-01-26T04:07:14.044Z,37.60
2023-01-26T04:09:27.258Z,36.80
2023-01-26T04:11:39.866Z,39.30
2023-01-26T04:14:11.053Z,38.00
2023-01-26T04:16:42.355Z,40.00
2023-01-26T04:19:14.104Z,39.90
2023-01-26T04:21:26.707Z,39.60
2023-01-26T04:23:39.328Z,39.70
2023-01-26T04:25:51.827Z,38.80
2023-01-26T04:28:04.566Z,37.70
2023-01-26T04:30:18.106Z,39.80
2023-01-26T04:32:30.992Z,37.90
2023-01-26T04:34:43.641Z,36.10
2023-01-26T04:36:56.220Z,37.00
2023-01-26T04:39:09.338Z,35.50
2023-01-26T04:41:22.209Z,34.30
2023-01-26T04:43:34.817Z,33.90
2023-01-26T04:46:16.906Z,32.50
2023-01-26T04:48:30.047Z,35.30
2023-01-26T04:50:42.584Z,37.90
2023-01-26T04:52:55.105Z,35.90
2023-01-26T04:55:08.021Z,39.30
2023-01-26T04:57:21.284Z,33.90
2023-01-26T04:59:34.244Z,37.30
2023-01-26T05:01:47.241Z,35.30
2023-01-26T05:04:03.278Z,37.00
2023-01-26T05:06:16.166Z,34.60
2023-01-26T05:08:28.727Z,34.80
2023-01-26T05:10:41.345Z,36.40
2023-01-26T05:12:53.966Z,33.40
2023-01-26T05:15:06.948Z,34.40
2023-01-26T05:17:19.535Z,34.60
2023-01-26T05:19:32.325Z,36.00
2023-01-26T05:21:44.922Z,32.70
2023-01-26T05:23:57.584Z,34.40
2023-01-26T05:26:11.697Z,34.90
2023-01-26T05:28:24.473Z,33.70
2023-01-26T05:30:37.204Z,35.80
2023-01-26T05:32:49.948Z,34.70
2023-01-26T05:35:03.295Z,32.10
2023-01-26T05:37:15.824Z,32.60
2023-01-26T05:39:28.440Z,32.50
2023-01-26T05:41:40.999Z,30.50
2023-01-26T05:43:53.570Z,30.80
2023-01-26T05:46:06.250Z,30.30
2023-01-26T05:48:18.936Z,33.30
2023-01-26T05:50:31.911Z,33.80
2023-01-26T05:52:46.622Z,32.10
2023-01-26T05:54:59.316Z,31.90
2023-01-26T05:57:12.382Z,30.90
2023-01-26T05:59:25.010Z,40.40
2023-01-26T06:01:37.665Z,38.60
2023-01-26T06:03:50.235Z,30.80
2023-01-26T06:06:02.835Z,33.60
2023-01-26T06:08:15.406Z,62.40
2023-01-26T06:10:27.983Z,53.20
2023-01-26T06:12:42.958Z,32.00
2023-01-26T06:14:58.427Z,35.20
2023-01-26T06:17:18.236Z,32.60
2023-01-26T06:19:30.846Z,27.00
2023-01-26T06:21:43.434Z,26.80
2023-01-26T06:23:56.037Z,32.30
2023-01-26T06:26:10.811Z,32.40
2023-01-26T06:28:23.622Z,32.50
2023-01-26T06:30:36.369Z,55.20
2023-01-26T06:32:49.021Z,43.90
2023-01-26T06:35:09.229Z,53.10
2023-01-26T06:37:21.839Z,57.20
2023-01-26T06:39:34.513Z,44.30
2023-01-26T06:41:47.053Z,37.50
2023-01-26T06:43:59.639Z,45.00
2023-01-26T06:46:12.496Z,43.70
2023-01-26T06:48:26.997Z,44.00
2023-01-26T06:50:39.823Z,35.20
2023-01-26T06:52:56.133Z,51.80
2023-01-26T06:55:21.025Z,33.60
2023-01-26T06:57:33.606Z,63.50
2023-01-26T06:59:46.143Z,38.00
2023-01-26T07:01:58.823Z,26.20
2023-01-26T07:04:11.468Z,30.90
2023-01-26T07:06:24.012Z,27.50
2023-01-26T07:08:37.550Z,37.60
2023-01-26T07:10:51.117Z,29.40
2023-01-26T07:13:05.369Z,27.40
2023-01-26T07:15:18.068Z,38.20
2023-01-26T07:17:31.840Z,27.40
2023-01-26T07:19:45.310Z,27.20
2023-01-26T07:21:58.139Z,27.00
2023-01-26T07:24:10.949Z,30.40
2023-01-26T07:26:23.586Z,27.50
2023-01-26T07:28:38.615Z,24.60
2023-01-26T07:30:53.621Z,27.00
2023-01-26T07:33:06.124Z,29.80
2023-01-26T07:35:26.079Z,29.80
2023-01-26T07:37:38.875Z,32.20
2023-01-26T07:39:51.386Z,28.80
2023-01-26T07:42:06.260Z,29.70
2023-01-26T07:44:18.784Z,31.50
2023-01-26T07:46:35.630Z,27.90
2023-01-26T07:48:48.213Z,26.30
2023-01-26T07:51:03.553Z,29.20
2023-01-26T07:53:22.877Z,28.00
2023-01-26T07:55:37.020Z,28.40
2023-01-26T07:57:49.907Z,25.80
2023-01-26T08:00:04.054Z,24.90
2023-01-26T08:02:16.587Z,23.60
2023-01-26T08:04:29.215Z,22.20
2023-01-26T08:06:42.060Z,23.70
2023-01-26T08:08:54.668Z,23.00
2023-01-26T08:11:08.701Z,24.10
2023-01-26T08:13:34.399Z,26.80
2023-01-26T08:15:47.487Z,23.30
2023-01-26T08:18:03.625Z,22.70
2023-01-26T08:20:16.588Z,23.30
2023-01-26T08:22:29.086Z,23.00
2023-01-26T08:24:41.652Z,21.90
2023-01-26T08:26:54.482Z,24.10
2023-01-26T08:29:07.455Z,24.50
2023-01-26T08:31:21.672Z,25.50
2023-01-26T08:33:34.912Z,26.40
2023-01-26T08:35:47.468Z,26.10
2023-01-26T08:38:00.664Z,31.30
2023-01-26T08:40:13.696Z,27.20
2023-01-26T08:42:26.400Z,30.40
2023-01-26T08:44:40.171Z,29.40
2023-01-26T08:46:52.812Z,25.50
2023-01-26T08:49:06.354Z,30.10
2023-01-26T08:51:18.912Z,31.10
2023-01-26T08:53:33.180Z,29.40
2023-01-26T08:55:45.825Z,26.80
2023-01-26T08:57:58.755Z,29.20
2023-01-26T09:00:12.738Z,27.70
2023-01-26T09:02:25.820Z,28.00
2023-01-26T09:04:38.413Z,32.10
2023-01-26T09:06:51.425Z,29.90
2023-01-26T09:09:04.003Z,29.30
2023-01-26T09:11:17.352Z,30.80
2023-01-26T09:13:29.865Z,27.50
2023-01-26T09:15:42.409Z,28.00
2023-01-26T09:17:55.102Z,27.50
2023-01-26T09:20:10.091Z,25.10
2023-01-26T09:22:22.875Z,28.60
2023-01-26T09:24:35.420Z,26.60
2023-01-26T09:26:48.106Z,25.10
2023-01-26T09:29:00.655Z,27.10
2023-01-26T09:31:13.449Z,24.30
2023-01-26T09:33:26.832Z,26.60
2023-01-26T09:35:39.479Z,26.40
2023-01-26T09:37:52.059Z,25.20
2023-01-26T09:40:06.173Z,25.60
2023-01-26T09:42:39.280Z,27.20
2023-01-26T09:45:07.478Z,27.20
2023-01-26T09:47:53.550Z,29.20
2023-01-26T09:50:22.974Z,27.80
2023-01-26T09:52:47.152Z,28.70
2023-01-26T09:55:03.967Z,27.40
2023-01-26T09:57:20.888Z,26.80
2023-01-26T09:59:54.003Z,23.90
2023-01-26T10:02:42.195Z,26.80
2023-01-26T10:05:01.256Z,29.50
2023-01-26T10:07:14.993Z,29.60
2023-01-26T10:09:33.293Z,30.20
2023-01-26T10:11:52.898Z,26.30
2023-01-26T10:14:15.048Z,27.70
2023-01-26T10:16:27.634Z,27.80
2023-01-26T10:18:54.070Z,26.50
2023-01-26T10:21:10.501Z,26.80
2023-01-26T10:23:32.381Z,26.60
2023-01-26T10:25:47.065Z,25.60
2023-01-26T10:28:00.371Z,27.80
2023-01-26T10:30:17.248Z,30.00
2023-01-26T10:32:32.352Z,29.70
2023-01-26T10:34:48.211Z,28.90
2023-01-26T10:37:22.636Z,29.60
2023-01-26T10:39:35.217Z,28.60
2023-01-26T10:41:59.830Z,29.10
2023-01-26T10:44:15.071Z,28.00
2023-01-26T10:46:34.361Z,29.40
2023-01-26T10:48:53.051Z,29.20
2023-01-26T10:51:21.599Z,36.70
2023-01-26T10:53:34.276Z,27.00
2023-01-26T10:56:00.711Z,27.60
2023-01-26T10:58:41.582Z,29.20
2023-01-26T11:00:57.389Z,25.80
2023-01-26T11:03:18.879Z,25.00
2023-01-26T11:05:31.584Z,25.80
2023-01-26T11:07:47.369Z,26.20
2023-01-26T11:10:18.919Z,25.70
2023-01-26T11:12:31.574Z,26.60
2023-01-26T11:15:00.926Z,27.00
2023-01-26T11:17:25.979Z,28.30
2023-01-26T11:19:55.680Z,25.80
2023-01-26T11:22:13.227Z,27.20
2023-01-26T11:24:30.354Z,27.20
2023-01-26T11:26:51.950Z,26.30
2023-01-26T11:29:23.551Z,27.00
2023-01-26T11:31:57.572Z,28.10
2023-01-26T11:34:28.944Z,28.70
2023-01-26T11:37:08.723Z,28.00
2023-01-26T11:39:24.215Z,29.80
2023-01-26T11:41:54.327Z,29.20
2023-01-26T11:44:40.935Z,25.80
2023-01-26T11:47:03.883Z,26.60
2023-01-26T11:49:47.039Z,27.40
2023-01-26T11:52:29.231Z,27.10
2023-01-26T11:54:59.991Z,26.60
2023-01-26T11:57:33.501Z,27.00
2023-01-26T11:59:57.312Z,26.40
2023-01-26T12:02:31.803Z,27.40
2023-01-26T12:04:46.863Z,26.30
2023-01-26T12:07:11.297Z,27.20
2023-01-26T12:09:39.702Z,27.60
2023-01-26T12:12:32.797Z,25.90
2023-01-26T12:14:53.149Z,28.40
2023-01-26T12:17:17.723Z,27.10
2023-01-26T12:19:45.307Z,29.80
2023-01-26T12:22:05.315Z,27.20
2023-01-26T12:25:00.965Z,28.20
2023-01-26T12:27:19.159Z,27.60
2023-01-26T12:29:54.530Z,28.70
2023-01-26T12:32:14.543Z,27.80
2023-01-26T12:34:29.547Z,27.00
2023-01-26T12:36:57.199Z,26.90
2023-01-26T12:39:37.858Z,27.50
2023-01-26T12:42:17.326Z,26.90
2023-01-26T12:44:39.752Z,26.90
2023-01-26T12:46:58.570Z,27.80
2023-01-26T12:49:25.597Z,26.40
2023-01-26T12:51:46.808Z,26.30
2023-01-26T12:54:02.460Z,29.50
2023-01-26T12:56:28.698Z,30.30
2023-01-26T12:58:45.589Z,28.90
2023-01-26T13:01:10.310Z,27.80
2023-01-26T13:03:31.084Z,28.00
2023-01-26T13:05:57.638Z,28.50
2023-01-26T13:08:33.195Z,30.30
2023-01-26T13:10:49.958Z,30.60
2023-01-26T13:13:14.628Z,31.80
2023-01-26T13:15:29.981Z,36.80
2023-01-26T13:17:49.623Z,35.50
2023-01-26T13:20:22.138Z,38.80
2023-01-26T13:22:42.439Z,34.40
2023-01-26T13:25:20.251Z,35.20
2023-01-26T13:27:40.310Z,32.30
2023-01-26T13:29:55.390Z,34.70
2023-01-26T13:32:13.947Z,36.20
2023-01-26T13:34:32.275Z,34.20
2023-01-26T13:36:48.201Z,37.30
2023-01-26T13:39:14.384Z,35.50
2023-01-26T13:41:27.206Z,36.60
2023-01-26T13:44:18.563Z,37.30
2023-01-26T13:46:38.096Z,33.60
2023-01-26T13:48:52.959Z,33.90
2023-01-26T13:51:09.161Z,34.30
2023-01-26T13:53:37.460Z,36.90
2023-01-26T13:55:57.763Z,37.40
2023-01-26T13:58:16.984Z,38.00
2023-01-26T14:00:29.645Z,40.10
2023-01-26T14:02:49.514Z,35.80
2023-01-26T14:05:03.301Z,34.40
2023-01-26T14:07:25.142Z,34.90
2023-01-26T14:09:48.368Z,36.30
2023-01-26T14:12:06.322Z,33.70
2023-01-26T14:14:27.969Z,31.20
2023-01-26T14:16:40.651Z,32.80
2023-01-26T14:19:12.463Z,34.50
2023-01-26T14:21:25.078Z,37.00
2023-01-26T14:23:37.657Z,36.20
2023-01-26T14:26:20.308Z,40.30
2023-01-26T14:28:40.826Z,38.60
2023-01-26T14:31:01.707Z,36.70
2023-01-26T14:33:16.758Z,37.10
2023-01-26T14:35:29.822Z,36.70
2023-01-26T14:37:42.329Z,35.50
2023-01-26T14:40:27.874Z,34.10
2023-01-26T14:42:41.106Z,32.00
2023-01-26T14:44:53.658Z,35.90
2023-01-26T14:47:16.635Z,32.60
2023-01-26T14:49:56.257Z,36.40
2023-01-26T14:52:21.203Z,35.70
2023-01-26T14:54:39.467Z,32.10
2023-01-26T14:56:52.170Z,31.50
2023-01-26T14:59:07.778Z,32.30
2023-01-26T15:01:25.980Z,32.60
2023-01-26T15:03:39.022Z,34.90
2023-01-26T15:06:05.965Z,34.90
2023-01-26T15:08:25.273Z,32.10
2023-01-26T15:10:41.262Z,34.20
2023-01-26T15:13:15.164Z,32.50
2023-01-26T15:15:33.614Z,34.20
2023-01-26T15:17:47.895Z,33.10
2023-01-26T15:20:00.480Z,33.30
2023-01-26T15:22:22.085Z,36.60
2023-01-26T15:24:34.691Z,35.10
2023-01-26T15:26:47.324Z,36.40
2023-01-26T15:29:03.434Z,35.80
2023-01-26T15:31:41.672Z,35.80
2023-01-26T15:33:55.131Z,37.00
2023-01-26T15:36:32.738Z,38.40
2023-01-26T15:38:45.567Z,37.60
2023-01-26T15:40:59.206Z,41.10
2023-01-26T15:43:20.204Z,46.90
2023-01-26T15:45:37.071Z,61.10
2023-01-26T15:47:50.202Z,55.00
2023-01-26T15:50:03.044Z,45.60
2023-01-26T15:52:18.042Z,65.90
2023-01-26T15:54:30.577Z,48.80
2023-01-26T15:56:43.536Z,48.30
2023-01-26T15:58:56.177Z,42.70
2023-01-26T16:01:20.451Z,40.90
2023-01-26T16:03:33.047Z,38.30
2023-01-26T16:05:49.299Z,36.00
2023-01-26T16:08:01.828Z,32.30
2023-01-26T16:10:17.988Z,32.40
2023-01-26T16:12:32.272Z,32.20
2023-01-26T16:14:45.054Z,32.40
2023-01-26T16:16:57.533Z,38.50
2023-01-26T16:19:20.597Z,43.00
2023-01-26T16:21:41.055Z,52.80
2023-01-26T16:23:54.584Z,38.00
2023-01-26T16:26:10.746Z,36.70
2023-01-26T16:28:24.941Z,34.30
2023-01-26T16:30:38.492Z,36.70
2023-01-26T16:32:51.807Z,35.60
2023-01-26T16:35:20.238Z,37.30
2023-01-26T16:37:32.933Z,36.20
2023-01-26T16:39:45.479Z,39.70
2023-01-26T16:41:57.991Z,40.90
2023-01-26T16:44:14.159Z,38.10
2023-01-26T16:46:28.113Z,41.10
2023-01-26T16:48:41.170Z,37.80
2023-01-26T16:50:54.621Z,38.80
2023-01-26T16:53:20.364Z,42.00
2023-01-26T16:55:32.959Z,40.70
2023-01-26T16:57:47.376Z,41.70
2023-01-26T16:59:59.920Z,39.30
2023-01-26T17:02:23.889Z,38.90
2023-01-26T17:04:36.589Z,35.60
2023-01-26T17:06:49.213Z,35.80
2023-01-26T17:09:01.945Z,37.90
2023-01-26T17:11:20.235Z,38.10
2023-01-26T17:13:32.805Z,40.00
2023-01-26T17:15:46.560Z,52.50
2023-01-26T17:17:59.264Z,53.40
2023-01-26T17:20:19.348Z,46.20
2023-01-26T17:22:32.534Z,40.90
2023-01-26T17:24:45.182Z,38.60
2023-01-26T17:26:57.778Z,48.10
2023-01-26T17:29:11.359Z,51.90
2023-01-26T17:31:24.647Z,40.50
2023-01-26T17:33:38.381Z,44.50
2023-01-26T17:36:00.059Z,42.20
2023-01-26T17:38:12.683Z,43.00
2023-01-26T17:40:25.200Z,49.50
2023-01-26T17:42:37.771Z,49.50
2023-01-26T17:44:51.157Z,50.10
2023-01-26T17:47:03.924Z,41.80
2023-01-26T17:49:16.620Z,38.30
2023-01-26T17:51:29.154Z,38.30
2023-01-26T17:53:43.036Z,38.70
2023-01-26T17:55:55.612Z,35.50
2023-01-26T17:58:10.993Z,37.60
2023-01-26T18:00:23.545Z,33.10
2023-01-26T18:02:37.718Z,37.00
2023-01-26T18:04:50.451Z,37.10
2023-01-26T18:07:03.106Z,33.70
2023-01-26T18:09:15.832Z,39.70
2023-01-26T18:11:28.820Z,50.00
2023-01-26T18:13:41.767Z,51.00
2023-01-26T18:15:55.036Z,48.50
2023-01-26T18:18:07.603Z,43.40
2023-01-26T18:20:20.114Z,50.00
2023-01-26T18:22:32.784Z,43.50
2023-01-26T18:24:45.451Z,54.40
2023-01-26T18:26:57.982Z,62.30
2023-01-26T18:29:11.252Z,61.40
2023-01-26T18:31:35.583Z,57.10
2023-01-26T18:33:49.463Z,46.50
2023-01-26T18:36:06.961Z,41.80
2023-01-26T18:38:19.523Z,42.30
2023-01-26T18:40:32.098Z,48.60
2023-01-26T18:42:44.865Z,60.60
2023-01-26T18:45:03.494Z,62.10
2023-01-26T18:47:16.068Z,54.40
2023-01-26T18:49:28.628Z,48.50
2023-01-26T18:51:47.789Z,45.10
2023-01-26T18:54:00.957Z,46.10
2023-01-26T18:56:15.945Z,43.50
2023-01-26T18:58:29.493Z,47.80
2023-01-26T19:00:43.321Z,46.20
2023-01-26T19:02:55.997Z,43.60
2023-01-26T19:05:09.207Z,42.60
2023-01-26T19:07:21.900Z,38.20
2023-01-26T19:09:35.894Z,41.70
2023-01-26T19:11:48.584Z,41.40
2023-01-26T19:14:02.642Z,37.50
2023-01-26T19:16:15.404Z,37.70
2023-01-26T19:18:28.306Z,37.40
2023-01-26T19:20:41.349Z,34.70
2023-01-26T19:22:55.428Z,36.90
2023-01-26T19:25:08.436Z,37.10
2023-01-26T19:27:21.318Z,37.00
2023-01-26T19:29:34.007Z,38.20
2023-01-26T19:31:46.671Z,41.10
2023-01-26T19:34:01.651Z,38.70
2023-01-26T19:36:14.398Z,38.40
2023-01-26T19:38:27.182Z,41.90
2023-01-26T19:40:39.779Z,39.20
2023-01-26T19:42:52.336Z,39.70
2023-01-26T19:45:05.278Z,41.00
2023-01-26T19:47:17.850Z,42.60
2023-01-26T19:49:30.511Z,46.30
2023-01-26T19:51:43.270Z,46.30
2023-01-26T19:53:58.811Z,44.70
2023-01-26T19:56:20.305Z,49.70
2023-01-26T19:58:33.383Z,53.30
2023-01-26T20:00:46.240Z,49.90
2023-01-26T20:02:58.922Z,49.60
2023-01-26T20:05:12.037Z,51.90
2023-01-26T20:07:25.073Z,50.30
2023-01-26T20:09:37.880Z,50.00
2023-01-26T20:11:50.484Z,47.70
2023-01-26T20:14:08.547Z,49.80
2023-01-26T20:16:21.834Z,48.90
2023-01-26T20:18:36.165Z,48.70
2023-01-26T20:20:50.335Z,51.30
2023-01-26T20:23:03.842Z,51.30
2023-01-26T20:25:16.521Z,52.20
2023-01-26T20:27:30.187Z,48.50
2023-01-26T20:29:43.156Z,47.10
2023-01-26T20:31:55.807Z,47.40
2023-01-26T20:34:09.515Z,48.60
2023-01-26T20:36:25.796Z,47.90
2023-01-26T20:38:39.361Z,46.70
2023-01-26T20:40:52.254Z,45.90
2023-01-26T20:43:04.893Z,46.80
2023-01-26T20:45:18.371Z,47.20
2023-01-26T20:47:33.985Z,44.70
2023-01-26T20:49:46.780Z,45.10
2023-01-26T20:51:59.824Z,52.40
2023-01-26T20:54:15.219Z,50.30
2023-01-26T20:56:27.975Z,48.60
2023-01-26T20:58:42.727Z,67.40
2023-01-26T21:01:03.725Z,65.20
2023-01-26T21:03:19.213Z,60.00
2023-01-26T21:05:32.642Z,51.10
2023-01-26T21:07:45.625Z,52.20
2023-01-26T21:09:58.454Z,56.40
2023-01-26T21:12:14.769Z,50.90
2023-01-26T21:14:27.491Z,44.70
2023-01-26T21:16:40.703Z,46.70
2023-01-26T21:18:54.176Z,40.70
2023-01-26T21:21:08.547Z,38.50
2023-01-26T21:23:21.427Z,71.50
2023-01-26T21:25:34.009Z,69.30
2023-01-26T21:27:46.518Z,62.40
2023-01-26T21:29:59.085Z,50.60
2023-01-26T21:32:11.881Z,51.40
2023-01-26T21:34:24.531Z,68.60
2023-01-26T21:36:37.325Z,54.70
2023-01-26T21:38:52.112Z,56.80
2023-01-26T21:41:28.968Z,46.00
2023-01-26T21:43:41.687Z,61.10
2023-01-26T21:45:58.924Z,70.80
2023-01-26T21:48:35.755Z,42.30
2023-01-26T21:52:37.356Z,49.30
2023-01-26T21:54:50.066Z,42.10
2023-01-26T21:57:04.402Z,51.70
2023-01-26T21:59:18.343Z,55.40
2023-01-26T22:01:32.764Z,49.50
2023-01-26T22:03:45.417Z,49.00
2023-01-26T22:05:58.007Z,55.70
2023-01-26T22:08:10.635Z,64.40
2023-01-26T22:10:23.172Z,46.50
2023-01-26T22:12:35.741Z,49.80
2023-01-26T22:14:50.182Z,54.10
2023-01-26T22:17:02.741Z,50.30
2023-01-26T22:19:15.464Z,50.00
2023-01-26T22:21:28.067Z,47.80
2023-01-26T22:23:41.386Z,50.90
2023-01-26T22:25:54.057Z,47.40
2023-01-26T22:28:07.594Z,52.10
2023-01-26T22:30:20.199Z,60.60
2023-01-26T22:32:32.718Z,48.90
2023-01-26T22:34:45.398Z,51.50
2023-01-26T22:36:57.955Z,40.80
2023-01-26T22:39:12.111Z,47.50
2023-01-26T22:41:27.352Z,59.70
2023-01-26T22:43:39.998Z,74.70
2023-01-26T22:45:53.336Z,48.10
2023-01-26T22:48:06.822Z,50.70
2023-01-26T22:50:19.523Z,57.80
2023-01-26T22:52:32.222Z,53.30
2023-01-26T22:54:44.768Z,49.20
2023-01-26T22:56:57.346Z,44.20
2023-01-26T22:59:09.940Z,49.20
2023-01-26T23:01:23.143Z,41.70
2023-01-26T23:03:36.551Z,41.00
2023-01-26T23:05:49.211Z,41.60
2023-01-26T23:08:02.163Z,41.30
2023-01-26T23:10:15.079Z,39.70
2023-01-26T23:12:27.658Z,35.60
2023-01-26T23:14:40.195Z,47.30
2023-01-26T23:16:52.899Z,45.20
2023-01-26T23:19:05.829Z,33.70
2023-01-26T23:21:19.334Z,36.40
2023-01-26T23:23:32.116Z,36.30
2023-01-26T23:25:51.393Z,39.10
2023-01-26T23:28:04.405Z,37.10
2023-01-26T23:30:17.184Z,35.00
2023-01-26T23:32:29.722Z,30.80
2023-01-26T23:34:42.221Z,36.50
2023-01-26T23:36:54.741Z,35.20
2023-01-26T23:39:07.326Z,36.10
2023-01-26T23:41:19.873Z,33.90
2023-01-26T23:43:32.805Z,34.80
2023-01-26T23:45:46.836Z,34.10
2023-01-26T23:47:59.808Z,31.30
2023-01-26T23:50:12.615Z,32.20
2023-01-26T23:52:25.351Z,32.90
2023-01-26T23:54:38.465Z,32.50
2023-01-26T23:56:51.007Z,32.30
2023-01-26T23:59:03.574Z,33.90
